createdAt,value
2022-12-05T00:00:43.040Z,5.00
2022-12-05T00:03:30.831Z,4.80
2022-12-05T00:06:18.768Z,4.90
2022-12-05T00:09:07.142Z,5.00
2022-12-05T00:11:54.701Z,5.00
2022-12-05T00:14:42.313Z,4.90
2022-12-05T00:17:31.393Z,4.90
2022-12-05T00:20:21.648Z,4.80
2022-12-05T00:23:09.310Z,4.90
2022-12-05T00:25:58.165Z,4.90
2022-12-05T00:28:59.174Z,4.90
2022-12-05T00:31:46.464Z,4.90
2022-12-05T00:34:37.839Z,4.90
2022-12-05T00:37:25.288Z,5.00
2022-12-05T00:40:12.701Z,4.90
2022-12-05T00:43:00.368Z,5.00
2022-12-05T00:45:47.729Z,5.00
2022-12-05T00:48:35.102Z,5.00
2022-12-05T00:51:24.324Z,5.00
2022-12-05T00:54:13.475Z,5.00
2022-12-05T00:57:00.599Z,5.00
2022-12-05T00:59:47.807Z,5.00
2022-12-05T01:02:35.037Z,5.00
2022-12-05T01:05:25.071Z,5.00
2022-12-05T01:08:12.289Z,5.00
2022-12-05T01:10:59.925Z,5.00
2022-12-05T01:13:47.544Z,5.00
2022-12-05T01:16:37.352Z,5.00
2022-12-05T01:19:26.381Z,4.90
2022-12-05T01:22:13.633Z,5.10
2022-12-05T01:25:01.153Z,5.00
2022-12-05T01:27:51.137Z,5.00
2022-12-05T01:30:39.820Z,5.00
2022-12-05T01:33:27.260Z,5.10
2022-12-05T01:36:15.274Z,5.10
2022-12-05T01:39:02.841Z,4.90
2022-12-05T01:41:50.793Z,5.00
2022-12-05T01:44:38.090Z,5.10
2022-12-05T01:47:27.186Z,5.00
2022-12-05T01:50:14.906Z,5.10
2022-12-05T01:53:02.605Z,5.10
2022-12-05T01:55:50.774Z,5.00
2022-12-05T01:58:44.853Z,5.10
2022-12-05T02:01:35.584Z,5.00
2022-12-05T02:04:24.678Z,4.90
2022-12-05T02:07:23.436Z,5.00
2022-12-05T02:10:15.373Z,5.20
2022-12-05T02:20:13.371Z,4.90
2022-12-05T02:23:24.354Z,5.10
2022-12-05T02:26:15.477Z,5.10
2022-12-05T02:29:27.988Z,5.10
2022-12-05T02:32:16.620Z,5.10
2022-12-05T02:35:34.337Z,5.20
2022-12-05T02:38:24.058Z,5.20
2022-12-05T02:41:34.315Z,5.10
2022-12-05T02:44:33.218Z,5.20
2022-12-05T02:47:29.113Z,5.30
2022-12-05T02:50:18.856Z,5.40
2022-12-05T02:53:40.486Z,5.40
2022-12-05T02:56:36.111Z,5.40
2022-12-05T02:59:26.289Z,5.30
2022-12-05T03:02:43.618Z,5.20
2022-12-05T03:05:59.253Z,5.30
2022-12-05T03:08:54.296Z,5.30
2022-12-05T03:11:48.802Z,5.10
2022-12-05T03:18:06.622Z,5.10
2022-12-05T03:21:09.302Z,5.20
2022-12-05T03:24:16.157Z,5.30
2022-12-05T03:27:14.538Z,5.30
2022-12-05T03:30:10.387Z,5.40
2022-12-05T03:33:25.168Z,5.30
2022-12-05T03:36:25.494Z,5.30
2022-12-05T03:39:21.588Z,5.30
2022-12-05T03:42:19.191Z,5.30
2022-12-05T03:45:21.218Z,5.50
2022-12-05T03:48:18.144Z,5.50
2022-12-05T03:51:17.648Z,5.50
2022-12-05T03:54:19.310Z,5.50
2022-12-05T03:57:18.289Z,5.50
2022-12-05T04:00:13.865Z,5.40
2022-12-05T04:03:09.664Z,5.40
2022-12-05T04:06:03.405Z,5.50
2022-12-05T04:09:11.132Z,5.50
2022-12-05T04:12:08.606Z,5.30
2022-12-05T04:15:06.002Z,5.40
2022-12-05T04:17:58.764Z,5.50
2022-12-05T04:21:07.677Z,5.50
2022-12-05T04:24:14.250Z,5.50
2022-12-05T04:27:08.653Z,5.60
2022-12-05T04:30:08.186Z,5.40
2022-12-05T04:33:00.976Z,5.40
2022-12-05T04:36:09.912Z,5.40
2022-12-05T04:39:11.805Z,5.40
2022-12-05T04:42:10.874Z,5.30
2022-12-05T04:45:08.537Z,5.40
2022-12-05T04:47:58.438Z,5.40
2022-12-05T04:50:48.866Z,5.40
2022-12-05T04:53:41.568Z,5.50
2022-12-05T04:56:39.221Z,5.40
2022-12-05T04:59:26.739Z,5.30
2022-12-05T05:05:23.623Z,5.70
2022-12-05T05:08:16.761Z,5.60
2022-12-05T05:11:11.301Z,5.50
2022-12-05T05:14:07.666Z,5.50
2022-12-05T05:16:56.994Z,5.50
2022-12-05T05:19:47.216Z,5.50
2022-12-05T05:22:35.007Z,5.50
2022-12-05T05:25:25.390Z,5.50
2022-12-05T05:28:12.970Z,5.50
2022-12-05T05:31:11.292Z,5.60
2022-12-05T05:34:09.153Z,5.60
2022-12-05T05:36:58.179Z,5.70
2022-12-05T05:40:10.980Z,5.60
2022-12-05T05:43:34.073Z,5.50
2022-12-05T05:49:48.744Z,5.60
2022-12-05T05:58:35.746Z,5.50
2022-12-05T06:00:56.547Z,5.70
2022-12-05T06:07:03.221Z,5.70
2022-12-05T07:09:09.474Z,5.80
2022-12-05T07:11:57.290Z,5.80
2022-12-05T07:14:48.136Z,5.80
2022-12-05T07:17:38.089Z,5.90
2022-12-05T07:20:27.920Z,6.00
2022-12-05T07:26:23.821Z,5.90
2022-12-05T07:29:10.902Z,5.80
2022-12-05T07:31:58.837Z,5.80
2022-12-05T07:34:47.109Z,5.80
2022-12-05T07:37:36.985Z,5.90
2022-12-05T07:40:24.669Z,5.90
2022-12-05T07:43:11.750Z,5.90
2022-12-05T07:46:06.005Z,5.90
2022-12-05T07:48:53.325Z,5.90
2022-12-05T07:51:41.279Z,6.00
2022-12-05T07:54:28.428Z,6.00
2022-12-05T07:57:15.440Z,6.00
2022-12-05T08:00:04.398Z,6.00
2022-12-05T08:02:52.112Z,6.00
2022-12-05T08:05:39.650Z,5.90
2022-12-05T08:08:27.408Z,6.10
2022-12-05T08:11:16.159Z,6.00
2022-12-05T08:14:04.521Z,6.00
2022-12-05T08:16:52.139Z,6.10
2022-12-05T08:19:39.266Z,6.00
2022-12-05T08:25:29.780Z,6.10
2022-12-05T08:28:16.791Z,6.00
2022-12-05T08:31:15.834Z,6.00
2022-12-05T08:40:37.685Z,6.00
2022-12-05T08:43:25.298Z,6.00
2022-12-05T08:46:13.279Z,6.00
2022-12-05T08:49:04.605Z,6.00
2022-12-05T08:53:20.179Z,6.00
2022-12-05T09:12:42.321Z,6.10
2022-12-05T09:15:29.419Z,6.20
2022-12-05T09:18:17.169Z,6.20
2022-12-05T09:21:11.901Z,6.30
2022-12-05T09:30:06.437Z,6.30
2022-12-05T09:32:53.546Z,6.40
2022-12-05T09:44:43.798Z,6.30
2022-12-05T09:47:49.475Z,6.40
2022-12-05T09:50:46.171Z,6.40
2022-12-05T09:53:36.011Z,6.40
2022-12-05T09:56:32.685Z,6.50
2022-12-05T09:59:20.615Z,6.40
2022-12-05T10:02:29.617Z,6.40
2022-12-05T10:05:35.599Z,6.40
2022-12-05T10:08:22.734Z,6.30
2022-12-05T10:11:14.130Z,6.50
2022-12-05T10:14:06.975Z,6.30
2022-12-05T10:16:59.091Z,6.30
2022-12-05T10:19:58.253Z,6.30
2022-12-05T10:22:45.810Z,6.30
2022-12-05T10:25:34.432Z,6.40
2022-12-05T10:28:42.671Z,6.40
2022-12-05T10:34:40.495Z,6.30
2022-12-05T10:37:30.843Z,6.40
2022-12-05T10:40:18.770Z,6.30
2022-12-05T10:43:24.427Z,6.40
2022-12-05T10:46:26.797Z,6.30
2022-12-05T10:49:13.959Z,6.50
2022-12-05T10:52:41.067Z,6.50
2022-12-05T10:55:31.171Z,6.40
2022-12-05T11:01:21.346Z,6.50
2022-12-05T11:04:20.869Z,6.50
2022-12-05T11:07:21.757Z,6.50
2022-12-05T11:10:28.541Z,6.50
2022-12-05T11:13:23.816Z,6.50
2022-12-05T11:16:23.593Z,6.50
2022-12-05T11:25:46.769Z,6.50
2022-12-05T11:28:36.314Z,6.50
2022-12-05T11:35:12.267Z,6.70
2022-12-05T11:38:03.305Z,6.70
2022-12-05T11:40:54.481Z,6.60
2022-12-05T11:46:57.395Z,6.60
2022-12-05T11:50:01.744Z,6.60
2022-12-05T11:52:52.262Z,6.60
2022-12-05T11:55:50.023Z,6.60
2022-12-05T11:58:40.118Z,6.70
2022-12-05T12:01:30.272Z,6.80
2022-12-05T12:04:21.115Z,6.90
2022-12-05T12:08:02.976Z,6.80
2022-12-05T12:10:59.610Z,6.80
2022-12-05T12:13:47.506Z,6.90
2022-12-05T12:16:49.650Z,6.80
2022-12-05T12:19:49.339Z,7.00
2022-12-05T12:22:39.971Z,6.80
2022-12-05T12:25:27.101Z,6.90
2022-12-05T12:28:41.689Z,6.80
2022-12-05T12:46:49.528Z,7.10
2022-12-05T12:49:44.467Z,7.00
2022-12-05T12:52:51.354Z,7.00
2022-12-05T12:55:42.389Z,6.90
2022-12-05T12:58:40.386Z,6.80
2022-12-05T13:08:06.575Z,6.70
2022-12-05T13:10:55.604Z,6.70
2022-12-05T13:17:24.267Z,6.70
2022-12-05T13:23:31.279Z,6.70
2022-12-05T13:26:18.509Z,6.60
2022-12-05T13:29:05.892Z,6.80
2022-12-05T13:31:54.027Z,6.90
2022-12-05T13:34:46.341Z,7.00
2022-12-05T13:37:53.556Z,6.90
2022-12-05T13:41:08.377Z,6.80
2022-12-05T13:44:06.446Z,7.00
2022-12-05T13:46:54.730Z,6.70
2022-12-05T13:49:48.291Z,7.00
2022-12-05T13:52:45.111Z,7.00
2022-12-05T13:55:36.172Z,7.10
2022-12-05T13:58:24.416Z,6.90
2022-12-05T14:01:27.234Z,7.00
2022-12-05T14:04:41.601Z,7.00
2022-12-05T14:08:03.646Z,7.10
2022-12-05T14:10:51.866Z,7.10
2022-12-05T14:13:41.366Z,7.20
2022-12-05T14:17:01.949Z,7.10
2022-12-05T14:19:56.294Z,6.90
2022-12-05T14:22:59.870Z,6.90
2022-12-05T14:26:02.110Z,7.00
2022-12-05T14:48:40.173Z,6.90
2022-12-05T15:11:00.771Z,7.00
2022-12-05T15:13:47.824Z,6.80
2022-12-05T15:22:41.253Z,6.80
2022-12-05T15:25:30.083Z,6.90
2022-12-05T15:28:21.226Z,6.60
2022-12-05T15:31:11.764Z,6.80
2022-12-05T15:34:03.261Z,6.80
2022-12-05T15:36:57.420Z,6.90
2022-12-05T15:39:55.103Z,7.00
2022-12-05T15:42:52.987Z,6.90
2022-12-05T15:45:40.835Z,6.80
2022-12-05T15:48:28.599Z,6.90
2022-12-05T16:03:33.377Z,7.10
2022-12-05T16:09:29.259Z,7.10
2022-12-05T16:12:37.474Z,7.10
2022-12-05T16:15:26.807Z,6.90
2022-12-05T16:18:35.000Z,6.90
2022-12-05T16:25:23.323Z,6.90
2022-12-05T16:28:11.245Z,6.80
2022-12-05T16:31:05.309Z,6.90
2022-12-05T16:34:06.729Z,7.00
2022-12-05T16:36:57.089Z,6.80
2022-12-05T16:39:45.038Z,6.80
2022-12-05T16:42:32.541Z,6.90
2022-12-05T16:45:37.641Z,7.00
2022-12-05T16:48:34.273Z,7.00
2022-12-05T16:51:25.654Z,6.90
2022-12-05T17:09:28.206Z,7.00
2022-12-05T17:12:21.430Z,7.10
2022-12-05T17:15:18.552Z,7.00
2022-12-05T17:21:25.944Z,7.00
2022-12-05T17:24:15.220Z,7.00
2022-12-05T17:27:02.344Z,7.10
2022-12-05T17:29:49.402Z,7.00
2022-12-05T17:32:36.413Z,7.00
2022-12-05T17:35:25.074Z,7.10
2022-12-05T17:41:23.584Z,7.20
2022-12-05T17:44:12.827Z,7.20
2022-12-05T17:47:06.028Z,7.20
2022-12-05T17:49:54.907Z,7.10
2022-12-05T17:52:43.177Z,7.10
2022-12-05T17:55:30.860Z,7.00
2022-12-05T17:58:18.398Z,7.20
2022-12-05T18:01:06.111Z,7.00
2022-12-05T18:03:53.563Z,7.10
2022-12-05T18:06:41.075Z,7.00
2022-12-05T18:09:28.135Z,7.00
2022-12-05T18:12:15.937Z,7.10
2022-12-05T18:15:02.984Z,7.10
2022-12-05T18:23:56.493Z,7.00
2022-12-05T18:26:44.023Z,6.90
2022-12-05T18:29:31.701Z,7.10
2022-12-05T18:32:19.939Z,7.10
2022-12-05T18:35:12.687Z,7.10
2022-12-05T18:38:00.644Z,6.90
2022-12-05T18:41:09.592Z,7.00
2022-12-05T18:43:57.534Z,7.10
2022-12-05T18:46:55.948Z,7.20
2022-12-05T18:49:43.055Z,7.10
2022-12-05T18:52:40.184Z,7.00
2022-12-05T19:01:36.269Z,7.10
2022-12-05T19:04:23.977Z,7.20
2022-12-05T19:07:17.839Z,7.10
2022-12-05T19:10:17.577Z,7.20
2022-12-05T19:13:04.626Z,7.00
2022-12-05T19:15:51.720Z,7.00
2022-12-05T19:18:39.363Z,7.00
2022-12-05T19:24:30.364Z,7.00
2022-12-05T19:27:17.522Z,7.00
2022-12-05T19:30:09.493Z,7.10
2022-12-05T19:32:57.179Z,7.10
2022-12-05T19:35:44.214Z,7.00
2022-12-05T19:38:32.917Z,7.00
2022-12-05T19:41:21.754Z,7.00
2022-12-05T19:44:09.215Z,7.00
2022-12-05T19:46:57.048Z,7.00
2022-12-05T19:49:44.486Z,7.00
2022-12-05T19:52:32.095Z,7.00
2022-12-05T19:55:19.220Z,7.00
2022-12-05T19:58:07.159Z,7.00
2022-12-05T20:00:55.256Z,7.00
2022-12-05T20:03:43.772Z,7.00
2022-12-05T20:06:32.281Z,7.10
2022-12-05T20:12:22.746Z,7.20
2022-12-05T20:15:10.493Z,7.10
2022-12-05T20:21:22.405Z,7.20
2022-12-05T20:40:51.669Z,7.30
2022-12-05T20:46:35.407Z,7.20
2022-12-05T20:52:18.211Z,7.20
2022-12-05T21:01:12.400Z,7.10
2022-12-05T21:07:29.330Z,7.00
2022-12-05T21:19:29.878Z,7.20
2022-12-05T21:22:17.311Z,7.00
2022-12-05T21:25:05.765Z,7.10
2022-12-05T21:27:53.478Z,7.10
2022-12-05T21:30:40.498Z,7.10
2022-12-05T21:33:29.069Z,7.10
2022-12-05T21:36:17.710Z,7.10
2022-12-05T21:39:06.076Z,7.20
2022-12-05T21:41:53.588Z,7.20
2022-12-05T21:44:40.929Z,7.30
2022-12-05T21:47:28.671Z,7.10
2022-12-05T21:50:16.192Z,7.30
2022-12-05T21:53:03.240Z,7.20
2022-12-05T21:56:15.410Z,7.00
2022-12-05T21:59:02.849Z,7.20
2022-12-05T22:01:50.753Z,7.20
2022-12-05T22:04:38.392Z,7.20
2022-12-05T22:07:25.460Z,7.30
2022-12-05T22:10:12.866Z,7.20
2022-12-05T22:13:00.281Z,7.30
2022-12-05T22:15:48.532Z,7.20
2022-12-05T22:18:36.451Z,7.30
2022-12-05T22:21:24.054Z,7.20
2022-12-05T22:24:11.166Z,7.30
2022-12-05T22:26:58.767Z,7.40
2022-12-05T22:29:49.932Z,7.40
2022-12-05T22:32:39.925Z,7.50
2022-12-05T22:35:26.968Z,7.20
2022-12-05T22:38:14.457Z,7.30
2022-12-05T22:41:08.971Z,7.20
2022-12-05T22:43:58.024Z,7.40
2022-12-05T22:46:45.322Z,7.30
2022-12-05T22:49:32.372Z,7.30
2022-12-05T22:52:19.553Z,7.40
2022-12-05T22:55:07.227Z,7.20
2022-12-05T22:57:54.634Z,7.20
2022-12-05T23:00:42.410Z,7.20
2022-12-05T23:06:22.749Z,7.20
2022-12-05T23:09:10.660Z,7.20
2022-12-05T23:11:58.539Z,7.10
2022-12-05T23:14:45.947Z,7.30
2022-12-05T23:17:33.153Z,7.40
2022-12-05T23:20:20.294Z,7.20
2022-12-05T23:23:07.459Z,7.40
2022-12-05T23:25:56.969Z,7.20
2022-12-05T23:28:45.015Z,7.30
2022-12-05T23:31:32.716Z,7.40
2022-12-05T23:34:20.587Z,7.40
2022-12-05T23:37:08.129Z,7.50
2022-12-05T23:39:58.684Z,7.40
2022-12-05T23:42:46.317Z,7.30
2022-12-05T23:45:33.422Z,7.40
2022-12-05T23:48:20.545Z,7.20
2022-12-05T23:51:12.036Z,7.20
2022-12-05T23:54:00.855Z,7.30
2022-12-05T23:56:48.518Z,7.10
